sensor_id;sensor_type;location;lat;lon;timestamp;temperature;humidity
70309;DHT22;57716;50.896;4.440;2023-02-12T00:01:30;8.40;99.90
70309;DHT22;57716;50.896;4.440;2023-02-12T00:03:56;8.30;99.90
70309;DHT22;57716;50.896;4.440;2023-02-12T00:06:22;8.30;99.90
70309;DHT22;57716;50.896;4.440;2023-02-12T00:08:53;7.80;99.90
70309;DHT22;57716;50.896;4.440;2023-02-12T00:11:22;7.70;99.90
70309;DHT22;57716;50.896;4.440;2023-02-12T00:13:48;7.70;99.90
70309;DHT22;57716;50.896;4.440;2023-02-12T00:16:16;7.90;99.90
70309;DHT22;57716;50.896;4.440;2023-02-12T00:18:42;8.00;99.90
70309;DHT22;57716;50.896;4.440;2023-02-12T00:21:08;7.80;99.90
70309;DHT22;57716;50.896;4.440;2023-02-12T00:23:35;7.50;99.90
70309;DHT22;57716;50.896;4.440;2023-02-12T00:26:04;7.50;99.90
70309;DHT22;57716;50.896;4.440;2023-02-12T00:28:30;7.50;99.90
70309;DHT22;57716;50.896;4.440;2023-02-12T00:30:56;7.40;99.90
70309;DHT22;57716;50.896;4.440;2023-02-12T00:33:22;7.50;99.90
70309;DHT22;57716;50.896;4.440;2023-02-12T00:35:57;7.50;99.90
70309;DHT22;57716;50.896;4.440;2023-02-12T00:38:23;7.80;99.90
70309;DHT22;57716;50.896;4.440;2023-02-12T00:40:49;8.10;99.90
70309;DHT22;57716;50.896;4.440;2023-02-12T00:43:15;8.10;99.90
70309;DHT22;57716;50.896;4.440;2023-02-12T00:45:41;8.20;99.90
70309;DHT22;57716;50.896;4.440;2023-02-12T00:48:06;8.30;99.90
70309;DHT22;57716;50.896;4.440;2023-02-12T00:50:32;8.00;99.90
70309;DHT22;57716;50.896;4.440;2023-02-12T00:52:58;8.40;99.90
70309;DHT22;57716;50.896;4.440;2023-02-12T00:55:24;8.60;99.90
70309;DHT22;57716;50.896;4.440;2023-02-12T00:57:49;8.10;99.90
70309;DHT22;57716;50.896;4.440;2023-02-12T01:00:15;7.80;99.90
70309;DHT22;57716;50.896;4.440;2023-02-12T01:02:41;8.00;99.90
70309;DHT22;57716;50.896;4.440;2023-02-12T01:05:07;8.60;99.90
70309;DHT22;57716;50.896;4.440;2023-02-12T01:07:33;9.00;99.90
70309;DHT22;57716;50.896;4.440;2023-02-12T01:09:59;8.90;99.90
70309;DHT22;57716;50.896;4.440;2023-02-12T01:12:25;8.70;99.90
70309;DHT22;57716;50.896;4.440;2023-02-12T01:14:50;8.00;99.90
70309;DHT22;57716;50.896;4.440;2023-02-12T01:17:16;7.70;99.90
70309;DHT22;57716;50.896;4.440;2023-02-12T01:19:42;7.70;99.90
70309;DHT22;57716;50.896;4.440;2023-02-12T01:22:09;7.40;99.90
70309;DHT22;57716;50.896;4.440;2023-02-12T01:24:34;7.80;99.90
70309;DHT22;57716;50.896;4.440;2023-02-12T01:27:00;7.80;99.90
70309;DHT22;57716;50.896;4.440;2023-02-12T01:29:26;8.30;99.90
70309;DHT22;57716;50.896;4.440;2023-02-12T01:31:52;8.50;99.90
70309;DHT22;57716;50.896;4.440;2023-02-12T01:34:17;8.50;99.90
70309;DHT22;57716;50.896;4.440;2023-02-12T01:36:43;8.30;99.90
70309;DHT22;57716;50.896;4.440;2023-02-12T01:39:10;8.10;99.90
70309;DHT22;57716;50.896;4.440;2023-02-12T01:41:40;7.90;99.90
70309;DHT22;57716;50.896;4.440;2023-02-12T01:46:37;8.40;99.90
70309;DHT22;57716;50.896;4.440;2023-02-12T01:49:07;7.90;99.90
70309;DHT22;57716;50.896;4.440;2023-02-12T01:51:34;7.80;99.90
70309;DHT22;57716;50.896;4.440;2023-02-12T01:54:04;8.00;99.90
70309;DHT22;57716;50.896;4.440;2023-02-12T01:56:30;7.90;99.90
70309;DHT22;57716;50.896;4.440;2023-02-12T01:58:56;7.50;99.90
70309;DHT22;57716;50.896;4.440;2023-02-12T02:01:26;7.90;99.90
70309;DHT22;57716;50.896;4.440;2023-02-12T02:04:05;8.50;99.90
70309;DHT22;57716;50.896;4.440;2023-02-12T02:06:36;7.80;99.90
70309;DHT22;57716;50.896;4.440;2023-02-12T02:09:04;7.50;99.90
70309;DHT22;57716;50.896;4.440;2023-02-12T02:11:30;7.50;99.90
70309;DHT22;57716;50.896;4.440;2023-02-12T02:14:16;7.40;99.90
70309;DHT22;57716;50.896;4.440;2023-02-12T02:32:55;7.10;99.90
70309;DHT22;57716;50.896;4.440;2023-02-12T02:38:23;7.00;99.90
70309;DHT22;57716;50.896;4.440;2023-02-12T02:43:51;6.70;99.90
70309;DHT22;57716;50.896;4.440;2023-02-12T02:46:41;6.80;99.90
70309;DHT22;57716;50.896;4.440;2023-02-12T02:49:22;7.30;99.90
70309;DHT22;57716;50.896;4.440;2023-02-12T02:51:52;7.60;99.90
70309;DHT22;57716;50.896;4.440;2023-02-12T02:54:24;7.50;99.90
70309;DHT22;57716;50.896;4.440;2023-02-12T02:56:57;7.70;99.90
70309;DHT22;57716;50.896;4.440;2023-02-12T02:59:28;7.60;99.90
70309;DHT22;57716;50.896;4.440;2023-02-12T03:02:05;7.30;99.90
70309;DHT22;57716;50.896;4.440;2023-02-12T03:04:44;7.30;99.90
70309;DHT22;57716;50.896;4.440;2023-02-12T03:07:26;7.60;99.90
70309;DHT22;57716;50.896;4.440;2023-02-12T03:10:01;8.00;99.90
70309;DHT22;57716;50.896;4.440;2023-02-12T03:12:47;8.40;99.90
70309;DHT22;57716;50.896;4.440;2023-02-12T03:17:47;8.30;99.90
70309;DHT22;57716;50.896;4.440;2023-02-12T03:20:21;8.50;99.90
70309;DHT22;57716;50.896;4.440;2023-02-12T03:23:02;8.10;99.90
70309;DHT22;57716;50.896;4.440;2023-02-12T03:25:34;7.70;99.90
70309;DHT22;57716;50.896;4.440;2023-02-12T03:28:28;7.60;99.90
70309;DHT22;57716;50.896;4.440;2023-02-12T03:34:08;7.20;99.90
70309;DHT22;57716;50.896;4.440;2023-02-12T03:36:51;7.00;99.90
70309;DHT22;57716;50.896;4.440;2023-02-12T03:42:38;7.30;99.90
70309;DHT22;57716;50.896;4.440;2023-02-12T03:48:02;7.10;99.90
70309;DHT22;57716;50.896;4.440;2023-02-12T03:50:48;7.40;99.90
70309;DHT22;57716;50.896;4.440;2023-02-12T03:53:16;7.60;99.90
70309;DHT22;57716;50.896;4.440;2023-02-12T03:55:44;7.50;99.90
70309;DHT22;57716;50.896;4.440;2023-02-12T03:58:18;7.10;99.90
70309;DHT22;57716;50.896;4.440;2023-02-12T04:00:45;6.80;99.90
70309;DHT22;57716;50.896;4.440;2023-02-12T04:03:11;6.70;99.90
70309;DHT22;57716;50.896;4.440;2023-02-12T04:05:37;6.70;99.90
70309;DHT22;57716;50.896;4.440;2023-02-12T04:08:06;6.70;99.90
70309;DHT22;57716;50.896;4.440;2023-02-12T04:11:06;6.80;99.90
70309;DHT22;57716;50.896;4.440;2023-02-12T04:16:31;8.00;99.90
70309;DHT22;57716;50.896;4.440;2023-02-12T04:18:59;7.80;99.90
70309;DHT22;57716;50.896;4.440;2023-02-12T04:21:37;7.80;99.90
70309;DHT22;57716;50.896;4.440;2023-02-12T04:26:59;7.20;99.90
70309;DHT22;57716;50.896;4.440;2023-02-12T04:29:48;7.70;99.90
70309;DHT22;57716;50.896;4.440;2023-02-12T04:32:19;8.10;99.90
70309;DHT22;57716;50.896;4.440;2023-02-12T04:34:59;8.20;99.90
70309;DHT22;57716;50.896;4.440;2023-02-12T04:37:54;8.20;99.90
70309;DHT22;57716;50.896;4.440;2023-02-12T04:40:21;8.00;99.90
70309;DHT22;57716;50.896;4.440;2023-02-12T04:42:50;8.10;99.90
70309;DHT22;57716;50.896;4.440;2023-02-12T04:45:25;8.20;99.90
70309;DHT22;57716;50.896;4.440;2023-02-12T04:47:51;8.10;99.90
70309;DHT22;57716;50.896;4.440;2023-02-12T04:50:17;7.60;99.90
70309;DHT22;57716;50.896;4.440;2023-02-12T04:52:43;7.80;99.90
70309;DHT22;57716;50.896;4.440;2023-02-12T04:55:09;7.80;99.90
70309;DHT22;57716;50.896;4.440;2023-02-12T04:57:36;7.60;99.90
70309;DHT22;57716;50.896;4.440;2023-02-12T05:00:04;7.10;99.90
70309;DHT22;57716;50.896;4.440;2023-02-12T05:02:32;6.90;99.90
70309;DHT22;57716;50.896;4.440;2023-02-12T05:04:58;6.70;99.90
70309;DHT22;57716;50.896;4.440;2023-02-12T05:07:24;6.70;99.90
70309;DHT22;57716;50.896;4.440;2023-02-12T05:09:49;7.20;99.90
70309;DHT22;57716;50.896;4.440;2023-02-12T05:12:15;7.60;99.90
70309;DHT22;57716;50.896;4.440;2023-02-12T05:14:41;7.10;99.90
70309;DHT22;57716;50.896;4.440;2023-02-12T05:17:06;7.20;99.90
70309;DHT22;57716;50.896;4.440;2023-02-12T05:19:32;7.80;99.90
70309;DHT22;57716;50.896;4.440;2023-02-12T05:21:58;7.60;99.90
70309;DHT22;57716;50.896;4.440;2023-02-12T05:24:24;7.30;99.90
70309;DHT22;57716;50.896;4.440;2023-02-12T05:26:50;7.00;99.90
70309;DHT22;57716;50.896;4.440;2023-02-12T05:29:16;6.80;99.90
70309;DHT22;57716;50.896;4.440;2023-02-12T05:31:43;6.60;99.90
70309;DHT22;57716;50.896;4.440;2023-02-12T05:34:10;6.50;99.90
70309;DHT22;57716;50.896;4.440;2023-02-12T05:36:36;6.70;99.90
70309;DHT22;57716;50.896;4.440;2023-02-12T05:39:02;7.20;99.90
70309;DHT22;57716;50.896;4.440;2023-02-12T05:41:28;7.20;99.90
70309;DHT22;57716;50.896;4.440;2023-02-12T05:43:59;7.50;99.90
70309;DHT22;57716;50.896;4.440;2023-02-12T05:46:24;7.50;99.90
70309;DHT22;57716;50.896;4.440;2023-02-12T05:48:50;7.20;99.90
70309;DHT22;57716;50.896;4.440;2023-02-12T05:51:19;7.00;99.90
70309;DHT22;57716;50.896;4.440;2023-02-12T05:53:46;7.20;99.90
70309;DHT22;57716;50.896;4.440;2023-02-12T05:58:41;7.00;99.90
70309;DHT22;57716;50.896;4.440;2023-02-12T06:01:14;7.00;99.90
70309;DHT22;57716;50.896;4.440;2023-02-12T06:03:40;6.50;99.90
70309;DHT22;57716;50.896;4.440;2023-02-12T06:06:07;6.90;99.90
70309;DHT22;57716;50.896;4.440;2023-02-12T06:08:33;7.50;99.90
70309;DHT22;57716;50.896;4.440;2023-02-12T06:11:04;7.60;99.90
70309;DHT22;57716;50.896;4.440;2023-02-12T06:13:31;7.60;99.90
70309;DHT22;57716;50.896;4.440;2023-02-12T06:15:57;7.50;99.90
70309;DHT22;57716;50.896;4.440;2023-02-12T06:18:23;7.00;99.90
70309;DHT22;57716;50.896;4.440;2023-02-12T06:20:49;6.70;99.90
70309;DHT22;57716;50.896;4.440;2023-02-12T06:23:14;6.60;99.90
70309;DHT22;57716;50.896;4.440;2023-02-12T06:25:40;6.70;99.90
70309;DHT22;57716;50.896;4.440;2023-02-12T06:28:06;6.60;99.90
70309;DHT22;57716;50.896;4.440;2023-02-12T06:30:35;6.60;99.90
70309;DHT22;57716;50.896;4.440;2023-02-12T06:33:00;6.50;99.90
70309;DHT22;57716;50.896;4.440;2023-02-12T06:35:27;6.40;99.90
70309;DHT22;57716;50.896;4.440;2023-02-12T06:37:52;6.40;99.90
70309;DHT22;57716;50.896;4.440;2023-02-12T06:40:18;6.30;99.90
70309;DHT22;57716;50.896;4.440;2023-02-12T06:42:44;6.40;99.90
70309;DHT22;57716;50.896;4.440;2023-02-12T06:45:10;6.50;99.90
70309;DHT22;57716;50.896;4.440;2023-02-12T06:47:35;6.70;99.90
70309;DHT22;57716;50.896;4.440;2023-02-12T06:50:01;7.40;99.90
70309;DHT22;57716;50.896;4.440;2023-02-12T06:52:27;7.80;99.90
70309;DHT22;57716;50.896;4.440;2023-02-12T06:54:53;8.00;99.90
70309;DHT22;57716;50.896;4.440;2023-02-12T06:57:19;8.10;99.90
70309;DHT22;57716;50.896;4.440;2023-02-12T06:59:45;8.30;99.90
70309;DHT22;57716;50.896;4.440;2023-02-12T07:02:11;8.20;99.90
70309;DHT22;57716;50.896;4.440;2023-02-12T07:04:37;7.60;99.90
70309;DHT22;57716;50.896;4.440;2023-02-12T07:07:04;7.10;99.90
70309;DHT22;57716;50.896;4.440;2023-02-12T07:09:30;7.40;99.90
70309;DHT22;57716;50.896;4.440;2023-02-12T07:11:59;7.60;99.90
70309;DHT22;57716;50.896;4.440;2023-02-12T07:14:25;7.20;99.90
70309;DHT22;57716;50.896;4.440;2023-02-12T07:16:54;6.70;99.90
70309;DHT22;57716;50.896;4.440;2023-02-12T07:19:20;6.80;99.90
70309;DHT22;57716;50.896;4.440;2023-02-12T07:21:46;7.10;99.90
70309;DHT22;57716;50.896;4.440;2023-02-12T07:24:13;7.40;99.90
70309;DHT22;57716;50.896;4.440;2023-02-12T07:26:40;6.90;99.90
70309;DHT22;57716;50.896;4.440;2023-02-12T07:29:06;6.70;99.90
70309;DHT22;57716;50.896;4.440;2023-02-12T07:31:32;7.20;99.90
70309;DHT22;57716;50.896;4.440;2023-02-12T07:33:59;7.70;99.90
70309;DHT22;57716;50.896;4.440;2023-02-12T07:36:27;8.00;99.90
70309;DHT22;57716;50.896;4.440;2023-02-12T07:38:53;7.90;99.90
70309;DHT22;57716;50.896;4.440;2023-02-12T07:41:22;7.30;99.90
70309;DHT22;57716;50.896;4.440;2023-02-12T07:43:53;7.20;99.90
70309;DHT22;57716;50.896;4.440;2023-02-12T07:46:22;7.60;99.90
70309;DHT22;57716;50.896;4.440;2023-02-12T07:48:51;7.00;99.90
70309;DHT22;57716;50.896;4.440;2023-02-12T07:51:17;6.70;99.90
70309;DHT22;57716;50.896;4.440;2023-02-12T07:53:44;7.10;99.90
70309;DHT22;57716;50.896;4.440;2023-02-12T07:56:15;7.20;99.90
70309;DHT22;57716;50.896;4.440;2023-02-12T07:58:43;6.90;99.90
70309;DHT22;57716;50.896;4.440;2023-02-12T08:01:17;6.80;99.90
70309;DHT22;57716;50.896;4.440;2023-02-12T08:03:44;7.20;99.90
70309;DHT22;57716;50.896;4.440;2023-02-12T08:06:14;7.00;99.90
70309;DHT22;57716;50.896;4.440;2023-02-12T08:08:39;6.70;99.90
70309;DHT22;57716;50.896;4.440;2023-02-12T08:11:06;6.60;99.90
70309;DHT22;57716;50.896;4.440;2023-02-12T08:13:34;7.00;99.90
70309;DHT22;57716;50.896;4.440;2023-02-12T08:16:10;7.60;99.90
70309;DHT22;57716;50.896;4.440;2023-02-12T08:18:36;7.90;99.90
70309;DHT22;57716;50.896;4.440;2023-02-12T08:21:07;7.40;99.90
70309;DHT22;57716;50.896;4.440;2023-02-12T08:23:34;7.30;99.90
70309;DHT22;57716;50.896;4.440;2023-02-12T08:28:33;7.10;99.90
70309;DHT22;57716;50.896;4.440;2023-02-12T08:31:04;6.90;99.90
70309;DHT22;57716;50.896;4.440;2023-02-12T08:33:30;6.90;99.90
70309;DHT22;57716;50.896;4.440;2023-02-12T08:36:05;7.40;99.90
70309;DHT22;57716;50.896;4.440;2023-02-12T08:38:32;7.90;99.90
70309;DHT22;57716;50.896;4.440;2023-02-12T08:41:10;8.00;99.90
70309;DHT22;57716;50.896;4.440;2023-02-12T08:43:36;7.80;99.90
70309;DHT22;57716;50.896;4.440;2023-02-12T08:46:14;7.80;99.90
70309;DHT22;57716;50.896;4.440;2023-02-12T08:48:41;7.40;99.90
70309;DHT22;57716;50.896;4.440;2023-02-12T08:51:18;7.30;99.90
70309;DHT22;57716;50.896;4.440;2023-02-12T08:53:47;7.10;99.90
70309;DHT22;57716;50.896;4.440;2023-02-12T08:56:16;7.10;99.90
70309;DHT22;57716;50.896;4.440;2023-02-12T08:58:44;7.20;99.90
70309;DHT22;57716;50.896;4.440;2023-02-12T09:01:16;7.50;99.90
70309;DHT22;57716;50.896;4.440;2023-02-12T09:03:43;8.00;99.90
70309;DHT22;57716;50.896;4.440;2023-02-12T09:06:10;7.90;99.90
70309;DHT22;57716;50.896;4.440;2023-02-12T09:08:38;7.50;99.90
70309;DHT22;57716;50.896;4.440;2023-02-12T09:11:05;7.40;99.90
70309;DHT22;57716;50.896;4.440;2023-02-12T09:13:31;7.70;99.90
70309;DHT22;57716;50.896;4.440;2023-02-12T09:15:59;7.90;99.90
70309;DHT22;57716;50.896;4.440;2023-02-12T09:18:25;8.10;99.90
70309;DHT22;57716;50.896;4.440;2023-02-12T09:20:51;8.40;99.90
70309;DHT22;57716;50.896;4.440;2023-02-12T09:23:16;8.20;99.90
70309;DHT22;57716;50.896;4.440;2023-02-12T09:25:43;8.10;99.90
70309;DHT22;57716;50.896;4.440;2023-02-12T09:28:10;8.30;99.90
70309;DHT22;57716;50.896;4.440;2023-02-12T09:30:37;8.70;99.90
70309;DHT22;57716;50.896;4.440;2023-02-12T09:33:04;8.50;99.90
70309;DHT22;57716;50.896;4.440;2023-02-12T09:35:29;8.50;99.90
70309;DHT22;57716;50.896;4.440;2023-02-12T09:37:55;8.50;99.90
70309;DHT22;57716;50.896;4.440;2023-02-12T09:40:30;8.30;99.90
70309;DHT22;57716;50.896;4.440;2023-02-12T09:45:41;8.30;99.90
70309;DHT22;57716;50.896;4.440;2023-02-12T09:50:56;8.30;99.90
70309;DHT22;57716;50.896;4.440;2023-02-12T09:53:27;8.30;99.90
70309;DHT22;57716;50.896;4.440;2023-02-12T09:55:54;8.50;99.90
70309;DHT22;57716;50.896;4.440;2023-02-12T10:00:54;8.60;99.90
70309;DHT22;57716;50.896;4.440;2023-02-12T10:03:21;8.40;99.90
70309;DHT22;57716;50.896;4.440;2023-02-12T10:05:48;8.80;99.90
70309;DHT22;57716;50.896;4.440;2023-02-12T10:14:11;8.90;99.90
70309;DHT22;57716;50.896;4.440;2023-02-12T10:28:11;9.00;99.90
70309;DHT22;57716;50.896;4.440;2023-02-12T10:30:57;9.00;99.90
70309;DHT22;57716;50.896;4.440;2023-02-12T10:33:51;8.90;99.90
70309;DHT22;57716;50.896;4.440;2023-02-12T10:36:27;8.80;99.90
70309;DHT22;57716;50.896;4.440;2023-02-12T10:39:00;8.80;99.90
70309;DHT22;57716;50.896;4.440;2023-02-12T10:41:28;9.10;99.90
70309;DHT22;57716;50.896;4.440;2023-02-12T10:43:55;9.00;99.90
70309;DHT22;57716;50.896;4.440;2023-02-12T10:46:21;9.10;99.90
70309;DHT22;57716;50.896;4.440;2023-02-12T10:48:52;8.90;99.90
70309;DHT22;57716;50.896;4.440;2023-02-12T10:53:54;8.70;99.90
70309;DHT22;57716;50.896;4.440;2023-02-12T10:56:21;9.00;99.90
70309;DHT22;57716;50.896;4.440;2023-02-12T10:58:54;9.20;99.90
70309;DHT22;57716;50.896;4.440;2023-02-12T11:01:30;9.00;99.90
70309;DHT22;57716;50.896;4.440;2023-02-12T11:04:00;8.90;99.90
70309;DHT22;57716;50.896;4.440;2023-02-12T11:07:04;8.60;99.90
70309;DHT22;57716;50.896;4.440;2023-02-12T11:09:39;8.60;99.90
70309;DHT22;57716;50.896;4.440;2023-02-12T11:12:33;8.70;99.90
70309;DHT22;57716;50.896;4.440;2023-02-12T11:15:17;8.70;99.90
70309;DHT22;57716;50.896;4.440;2023-02-12T11:18:07;8.70;99.90
70309;DHT22;57716;50.896;4.440;2023-02-12T11:20:41;8.60;99.90
70309;DHT22;57716;50.896;4.440;2023-02-12T11:23:28;8.60;99.90
70309;DHT22;57716;50.896;4.440;2023-02-12T11:28:23;8.80;99.90
70309;DHT22;57716;50.896;4.440;2023-02-12T11:30:58;8.80;99.90
70309;DHT22;57716;50.896;4.440;2023-02-12T11:33:32;8.70;99.90
70309;DHT22;57716;50.896;4.440;2023-02-12T11:36:19;8.80;99.90
70309;DHT22;57716;50.896;4.440;2023-02-12T11:38:52;8.80;99.90
70309;DHT22;57716;50.896;4.440;2023-02-12T11:41:35;9.00;99.90
70309;DHT22;57716;50.896;4.440;2023-02-12T11:44:12;9.00;99.90
70309;DHT22;57716;50.896;4.440;2023-02-12T11:46:49;9.20;99.90
70309;DHT22;57716;50.896;4.440;2023-02-12T11:49:24;9.10;99.90
70309;DHT22;57716;50.896;4.440;2023-02-12T11:51:51;9.10;99.90
70309;DHT22;57716;50.896;4.440;2023-02-12T11:54:24;9.10;99.90
70309;DHT22;57716;50.896;4.440;2023-02-12T11:56:50;9.30;99.90
70309;DHT22;57716;50.896;4.440;2023-02-12T12:02:00;9.50;99.90
70309;DHT22;57716;50.896;4.440;2023-02-12T12:04:28;9.60;99.90
70309;DHT22;57716;50.896;4.440;2023-02-12T12:07:00;9.60;99.90
70309;DHT22;57716;50.896;4.440;2023-02-12T12:15:05;9.60;99.90
70309;DHT22;57716;50.896;4.440;2023-02-12T12:20:42;9.70;99.90
70309;DHT22;57716;50.896;4.440;2023-02-12T12:23:19;9.60;99.90
70309;DHT22;57716;50.896;4.440;2023-02-12T12:25:55;9.40;99.90
70309;DHT22;57716;50.896;4.440;2023-02-12T12:28:35;9.30;99.90
70309;DHT22;57716;50.896;4.440;2023-02-12T12:31:18;9.30;99.90
70309;DHT22;57716;50.896;4.440;2023-02-12T12:34:16;9.50;99.90
70309;DHT22;57716;50.896;4.440;2023-02-12T12:39:36;9.50;99.90
70309;DHT22;57716;50.896;4.440;2023-02-12T12:42:29;9.40;99.90
70309;DHT22;57716;50.896;4.440;2023-02-12T12:47:59;9.10;99.90
70309;DHT22;57716;50.896;4.440;2023-02-12T13:11:50;9.00;99.90
70309;DHT22;57716;50.896;4.440;2023-02-12T13:17:30;9.20;99.90
70309;DHT22;57716;50.896;4.440;2023-02-12T13:28:13;9.10;99.90
70309;DHT22;57716;50.896;4.440;2023-02-12T13:30:51;9.00;99.90
70309;DHT22;57716;50.896;4.440;2023-02-12T13:36:09;9.00;99.90
70309;DHT22;57716;50.896;4.440;2023-02-12T13:41:15;9.10;99.90
70309;DHT22;57716;50.896;4.440;2023-02-12T13:44:04;9.20;99.90
70309;DHT22;57716;50.896;4.440;2023-02-12T13:52:00;9.10;99.90
70309;DHT22;57716;50.896;4.440;2023-02-12T13:57:06;9.30;99.90
70309;DHT22;57716;50.896;4.440;2023-02-12T14:07:52;9.30;99.90
70309;DHT22;57716;50.896;4.440;2023-02-12T14:13:12;9.10;99.90
70309;DHT22;57716;50.896;4.440;2023-02-12T14:15:41;9.10;99.90
70309;DHT22;57716;50.896;4.440;2023-02-12T14:18:31;9.10;99.90
70309;DHT22;57716;50.896;4.440;2023-02-12T14:23:43;9.00;99.90
70309;DHT22;57716;50.896;4.440;2023-02-12T14:26:16;9.00;99.90
70309;DHT22;57716;50.896;4.440;2023-02-12T14:28:55;9.00;99.90
70309;DHT22;57716;50.896;4.440;2023-02-12T14:31:30;8.90;99.90
70309;DHT22;57716;50.896;4.440;2023-02-12T14:39:04;9.00;99.90
70309;DHT22;57716;50.896;4.440;2023-02-12T14:41:31;9.10;99.90
70309;DHT22;57716;50.896;4.440;2023-02-12T14:46:56;8.90;99.90
70309;DHT22;57716;50.896;4.440;2023-02-12T14:57:29;9.00;99.90
70309;DHT22;57716;50.896;4.440;2023-02-12T15:05:31;8.90;99.90
70309;DHT22;57716;50.896;4.440;2023-02-12T15:11:06;9.00;99.90
70309;DHT22;57716;50.896;4.440;2023-02-12T15:13:48;8.90;99.90
70309;DHT22;57716;50.896;4.440;2023-02-12T15:19:23;8.80;99.90
70309;DHT22;57716;50.896;4.440;2023-02-12T15:21:52;8.90;99.90
70309;DHT22;57716;50.896;4.440;2023-02-12T15:24:23;8.80;99.90
70309;DHT22;57716;50.896;4.440;2023-02-12T15:26:54;8.80;99.90
70309;DHT22;57716;50.896;4.440;2023-02-12T15:29:23;8.90;99.90
70309;DHT22;57716;50.896;4.440;2023-02-12T15:32:03;9.00;99.90
70309;DHT22;57716;50.896;4.440;2023-02-12T15:34:32;9.10;99.90
70309;DHT22;57716;50.896;4.440;2023-02-12T15:37:02;9.00;99.90
70309;DHT22;57716;50.896;4.440;2023-02-12T15:39:40;9.10;99.90
70309;DHT22;57716;50.896;4.440;2023-02-12T15:42:53;9.20;99.90
70309;DHT22;57716;50.896;4.440;2023-02-12T15:45:22;9.20;99.90
70309;DHT22;57716;50.896;4.440;2023-02-12T15:48:19;9.20;99.90
70309;DHT22;57716;50.896;4.440;2023-02-12T15:50:54;9.10;99.90
70309;DHT22;57716;50.896;4.440;2023-02-12T15:53:25;9.00;99.90
70309;DHT22;57716;50.896;4.440;2023-02-12T15:55:53;9.10;99.90
70309;DHT22;57716;50.896;4.440;2023-02-12T15:58:27;9.10;99.90
70309;DHT22;57716;50.896;4.440;2023-02-12T16:00:59;9.20;99.90
70309;DHT22;57716;50.896;4.440;2023-02-12T16:03:34;9.40;99.90
70309;DHT22;57716;50.896;4.440;2023-02-12T16:06:06;9.20;99.90
70309;DHT22;57716;50.896;4.440;2023-02-12T16:08:37;9.20;99.90
70309;DHT22;57716;50.896;4.440;2023-02-12T16:11:03;9.20;99.90
70309;DHT22;57716;50.896;4.440;2023-02-12T16:18:37;9.20;99.90
70309;DHT22;57716;50.896;4.440;2023-02-12T16:23:35;9.70;99.90
70309;DHT22;57716;50.896;4.440;2023-02-12T16:26:01;9.40;99.90
70309;DHT22;57716;50.896;4.440;2023-02-12T16:28:29;9.00;99.90
70309;DHT22;57716;50.896;4.440;2023-02-12T16:31:12;8.80;99.90
70309;DHT22;57716;50.896;4.440;2023-02-12T16:36:33;8.80;99.90
70309;DHT22;57716;50.896;4.440;2023-02-12T16:39:03;9.10;99.90
70309;DHT22;57716;50.896;4.440;2023-02-12T16:41:33;9.10;99.90
70309;DHT22;57716;50.896;4.440;2023-02-12T16:46:33;8.90;99.90
70309;DHT22;57716;50.896;4.440;2023-02-12T16:49:01;8.80;99.90
70309;DHT22;57716;50.896;4.440;2023-02-12T16:53:57;8.50;99.90
70309;DHT22;57716;50.896;4.440;2023-02-12T16:56:30;8.50;99.90
70309;DHT22;57716;50.896;4.440;2023-02-12T16:58:59;8.60;99.90
70309;DHT22;57716;50.896;4.440;2023-02-12T17:01:28;8.50;99.90
70309;DHT22;57716;50.896;4.440;2023-02-12T17:03:56;8.60;99.90
70309;DHT22;57716;50.896;4.440;2023-02-12T17:06:28;8.70;99.90
70309;DHT22;57716;50.896;4.440;2023-02-12T17:08:55;8.70;99.90
70309;DHT22;57716;50.896;4.440;2023-02-12T17:11:21;8.60;99.90
70309;DHT22;57716;50.896;4.440;2023-02-12T17:13:49;8.70;99.90
70309;DHT22;57716;50.896;4.440;2023-02-12T17:16:15;8.80;99.90
70309;DHT22;57716;50.896;4.440;2023-02-12T17:18:41;8.90;99.90
70309;DHT22;57716;50.896;4.440;2023-02-12T17:21:23;8.80;99.90
70309;DHT22;57716;50.896;4.440;2023-02-12T17:23:50;8.80;99.90
70309;DHT22;57716;50.896;4.440;2023-02-12T17:26:18;8.80;99.90
70309;DHT22;57716;50.896;4.440;2023-02-12T17:28:43;8.70;99.90
70309;DHT22;57716;50.896;4.440;2023-02-12T17:31:10;8.70;99.90
70309;DHT22;57716;50.896;4.440;2023-02-12T17:33:36;8.60;99.90
70309;DHT22;57716;50.896;4.440;2023-02-12T17:36:02;8.50;99.90
70309;DHT22;57716;50.896;4.440;2023-02-12T17:38:28;8.50;99.90
70309;DHT22;57716;50.896;4.440;2023-02-12T17:40:54;8.60;99.90
70309;DHT22;57716;50.896;4.440;2023-02-12T17:43:20;8.70;99.90
70309;DHT22;57716;50.896;4.440;2023-02-12T17:45:46;8.60;99.90
70309;DHT22;57716;50.896;4.440;2023-02-12T17:48:13;8.50;99.90
70309;DHT22;57716;50.896;4.440;2023-02-12T17:50:40;8.40;99.90
70309;DHT22;57716;50.896;4.440;2023-02-12T17:53:06;8.50;99.90
70309;DHT22;57716;50.896;4.440;2023-02-12T17:55:32;8.50;99.90
70309;DHT22;57716;50.896;4.440;2023-02-12T17:58:01;8.30;99.90
70309;DHT22;57716;50.896;4.440;2023-02-12T18:00:28;8.30;99.90
70309;DHT22;57716;50.896;4.440;2023-02-12T18:02:54;8.20;99.90
70309;DHT22;57716;50.896;4.440;2023-02-12T18:05:20;8.20;99.90
70309;DHT22;57716;50.896;4.440;2023-02-12T18:07:46;8.30;99.90
70309;DHT22;57716;50.896;4.440;2023-02-12T18:10:12;8.30;99.90
70309;DHT22;57716;50.896;4.440;2023-02-12T18:12:38;8.30;99.90
70309;DHT22;57716;50.896;4.440;2023-02-12T18:15:05;8.30;99.90
70309;DHT22;57716;50.896;4.440;2023-02-12T18:17:31;8.40;99.90
70309;DHT22;57716;50.896;4.440;2023-02-12T18:19:57;8.60;99.90
70309;DHT22;57716;50.896;4.440;2023-02-12T18:22:23;8.80;99.90
70309;DHT22;57716;50.896;4.440;2023-02-12T18:24:49;8.70;99.90
70309;DHT22;57716;50.896;4.440;2023-02-12T18:27:15;8.70;99.90
70309;DHT22;57716;50.896;4.440;2023-02-12T18:29:43;8.70;99.90
70309;DHT22;57716;50.896;4.440;2023-02-12T18:32:09;8.80;99.90
70309;DHT22;57716;50.896;4.440;2023-02-12T18:34:39;8.70;99.90
70309;DHT22;57716;50.896;4.440;2023-02-12T18:37:06;8.70;99.90
70309;DHT22;57716;50.896;4.440;2023-02-12T18:39:32;8.60;99.90
70309;DHT22;57716;50.896;4.440;2023-02-12T18:41:57;8.50;99.90
70309;DHT22;57716;50.896;4.440;2023-02-12T18:44:23;8.30;99.90
70309;DHT22;57716;50.896;4.440;2023-02-12T18:46:49;8.20;99.90
70309;DHT22;57716;50.896;4.440;2023-02-12T18:49:15;8.30;99.90
70309;DHT22;57716;50.896;4.440;2023-02-12T18:51:41;8.40;99.90
70309;DHT22;57716;50.896;4.440;2023-02-12T18:54:10;8.40;99.90
70309;DHT22;57716;50.896;4.440;2023-02-12T18:56:38;8.40;99.90
70309;DHT22;57716;50.896;4.440;2023-02-12T18:59:06;8.40;99.90
70309;DHT22;57716;50.896;4.440;2023-02-12T19:01:33;8.30;99.90
70309;DHT22;57716;50.896;4.440;2023-02-12T19:04:00;8.20;99.90
70309;DHT22;57716;50.896;4.440;2023-02-12T19:06:28;8.20;99.90
70309;DHT22;57716;50.896;4.440;2023-02-12T19:08:56;8.10;99.90
70309;DHT22;57716;50.896;4.440;2023-02-12T19:11:22;8.10;99.90
70309;DHT22;57716;50.896;4.440;2023-02-12T19:13:48;7.90;99.90
70309;DHT22;57716;50.896;4.440;2023-02-12T19:16:15;7.80;99.90
70309;DHT22;57716;50.896;4.440;2023-02-12T19:18:42;7.80;99.90
70309;DHT22;57716;50.896;4.440;2023-02-12T19:21:11;7.70;99.90